Aérodrome :







RETROUVEZ-NOUS SUR...

 
LOGIN :

S'inscrire | Disclaimer

   EN    FR    IT 

 









Légende :    VFR   VFR Marginal   IFR   IFR Intensif   IFR Très Intensif
Visi : 
Plafond : 
>= 8 km
>= 3000ft
5 à 8 km
1000 à 3000 ft
1500m à 5 km
500 à 1000 ft
800 à 1500m
200 à 500 ft
< 800m
< 200 ft
Symboles :   Orages  Brouillard  Fortes neiges  Fortes précipitations  Vent > 20 kt






- Altitude de l'aérodrome : 232 ft
- Code IATA : YQM


CYQM - Greater Moncton International

DERNIER METAR :
  • 141152Z 02011G18KT 3SM -SHRA BR BKN004 OVC018 16/16 A2996 RMK SF7SC1 CVCTV CLD EMBD SLP147 DENSITY ALT 400FT

METARs EXPIRÉS :
  • 141131Z 02012KT 1 1/4SM -SHRA BR BKN004 OVC022 16/16 A2995 RMK SF7SC1 CVCTV CLD EMBD SLP145 DENSITY ALT 400FT
  • 141100Z 02009KT 2 1/2SM -SHRA BR BKN004 OVC025 16/16 A2994 RMK SF7SC1 CVCTV CLD EMBD SLP140 DENSITY ALT 400FT
  • 141049Z 01009KT 2 1/2SM -SHRA BR BKN005 OVC025 16/16 A2994 RMK SF7SC1 CVCTV CLD EMBD SLP140 DENSITY ALT 500FT
  • 141022Z 36008KT 8SM -SHRA BKN006 OVC025 16/15 A2993 RMK SF7SC1 CVCTV CLD EMBD SLP138 DENSITY ALT 500FT
  • 141000Z 01007KT 15SM BKN007 OVC025 16/15 A2993 RMK SF7SC1 SLP135 DENSITY ALT 500FT
  • 140921Z 01007KT 15SM BKN007 BKN012 OVC035 16/15 A2991 RMK SF5SC2SC1 SLP131 DENSITY ALT 500FT
  • 140900Z 02007KT 8SM OVC012 16/15 A2990 RMK SC8 SLP128 DENSITY ALT 500FT

TAF TAF CYQM
Valide du 14 à 12h jusqu'au 15 à 12h UTC


141138Z 1412/1512 01008KT 4SM -SHRA BR OVC004
TEMPO 1412/1414 P6SM NSW FEW004 OVC025
FM141400 02012KT 5SM -SHRA BR OVC010
TEMPO 1414/1422 P6SM NSW SCT010 OVC025
BECMG 1414/1416 03015G25KT
FM142200 05012KT P6SM -SHRA OVC020
FM150500 02012KT P6SM BKN040
BECMG 1510/1512 03015G25KT RMK NXT FCST BY 141800Z
FIR CZQM / Amérique du Nord



MET'MAP, la Météo Aéronautique d'un coup d'oeil ! - Copyright ORBIFLY Décembre 2007 - Disclaimer

ORBIFLY MET'MAP TEAM :

Programmation & Développement : Alexandra Zaïnal
Sur une idée originale de : Baudouin d'Aumeries
Assistance à la programmation : Marc-Olivier Méhu
Soutien technique & logistique : Manuel Goepfert

Contact : metmap@orbifly.com




SOURCES & CREDITS :

   NOAA